sensor_id;sensor_type;location;lat;lon;timestamp;pressure;altitude;pressure_sealevel;temperature;humidity
7109;BME280;29079;41.930;25.558;2024-01-10T00:00:53;100880.03;;;-1.63;96.14
7109;BME280;29079;41.930;25.558;2024-01-10T00:03:41;100870.47;;;-2.20;94.47
7109;BME280;29079;41.930;25.558;2024-01-10T00:06:29;100892.13;;;-2.12;93.87
7109;BME280;29079;41.930;25.558;2024-01-10T00:09:18;100844.97;;;-2.06;100.00
7109;BME280;29079;41.930;25.558;2024-01-10T00:12:06;100867.75;;;-1.58;100.00
7109;BME280;29079;41.930;25.558;2024-01-10T00:14:56;100888.69;;;-1.56;100.00
7109;BME280;29079;41.930;25.558;2024-01-10T00:17:44;100901.59;;;-2.00;98.37
7109;BME280;29079;41.930;25.558;2024-01-10T00:20:33;100896.00;;;-1.77;100.00
7109;BME280;29079;41.930;25.558;2024-01-10T00:23:21;100896.84;;;-1.77;100.00
7109;BME280;29079;41.930;25.558;2024-01-10T00:26:09;100901.88;;;-1.64;100.00
7109;BME280;29079;41.930;25.558;2024-01-10T00:28:57;100877.50;;;-2.25;100.00
7109;BME280;29079;41.930;25.558;2024-01-10T00:31:52;100906.47;;;-1.77;100.00
7109;BME280;29079;41.930;25.558;2024-01-10T00:34:40;100910.53;;;-1.59;100.00
7109;BME280;29079;41.930;25.558;2024-01-10T00:37:28;100909.88;;;-1.73;100.00
7109;BME280;29079;41.930;25.558;2024-01-10T00:40:16;100902.19;;;-1.83;100.00
7109;BME280;29079;41.930;25.558;2024-01-10T00:43:04;100881.56;;;-1.50;100.00
7109;BME280;29079;41.930;25.558;2024-01-10T00:45:52;100896.00;;;-1.77;100.00
7109;BME280;29079;41.930;25.558;2024-01-10T00:48:41;100919.00;;;-1.99;93.16
7109;BME280;29079;41.930;25.558;2024-01-10T00:51:29;100921.41;;;-1.85;91.92
7109;BME280;29079;41.930;25.558;2024-01-10T00:54:17;100911.72;;;-1.80;91.32
7109;BME280;29079;41.930;25.558;2024-01-10T00:57:05;100914.28;;;-1.76;93.25
7109;BME280;29079;41.930;25.558;2024-01-10T00:59:53;100924.03;;;-1.85;87.67
7109;BME280;29079;41.930;25.558;2024-01-10T01:02:41;100913.41;;;-1.76;87.16
7109;BME280;29079;41.930;25.558;2024-01-10T01:05:31;100909.69;;;-1.60;91.67
7109;BME280;29079;41.930;25.558;2024-01-10T01:08:19;100902.94;;;-1.76;86.28
7109;BME280;29079;41.930;25.558;2024-01-10T01:11:07;100899.94;;;-1.53;92.93
7109;BME280;29079;41.930;25.558;2024-01-10T01:13:55;100889.94;;;-1.81;86.03
7109;BME280;29079;41.930;25.558;2024-01-10T01:16:43;100903.06;;;-1.84;83.65
7109;BME280;29079;41.930;25.558;2024-01-10T01:19:32;100885.50;;;-1.76;84.57
7109;BME280;29079;41.930;25.558;2024-01-10T01:22:22;100900.81;;;-1.51;87.48
7109;BME280;29079;41.930;25.558;2024-01-10T01:25:10;100908.94;;;-1.69;81.35
7109;BME280;29079;41.930;25.558;2024-01-10T01:27:58;100910.09;;;-1.87;80.41
7109;BME280;29079;41.930;25.558;2024-01-10T01:30:46;100903.78;;;-1.72;82.63
7109;BME280;29079;41.930;25.558;2024-01-10T01:33:34;100913.72;;;-1.98;78.10
7109;BME280;29079;41.930;25.558;2024-01-10T01:36:22;100906.84;;;-2.05;74.35
7109;BME280;29079;41.930;25.558;2024-01-10T01:39:12;100906.50;;;-1.82;77.05
7109;BME280;29079;41.930;25.558;2024-01-10T01:42:00;100895.25;;;-1.85;79.61
7109;BME280;29079;41.930;25.558;2024-01-10T01:44:48;100897.72;;;-1.78;78.11
7109;BME280;29079;41.930;25.558;2024-01-10T01:47:38;100889.78;;;-1.73;78.05
7109;BME280;29079;41.930;25.558;2024-01-10T01:50:26;100876.69;;;-1.70;85.02
7109;BME280;29079;41.930;25.558;2024-01-10T01:53:14;100884.66;;;-1.78;78.98
7109;BME280;29079;41.930;25.558;2024-01-10T01:56:06;100891.22;;;-1.52;82.65
7109;BME280;29079;41.930;25.558;2024-01-10T01:58:55;100862.38;;;-2.02;77.20
7109;BME280;29079;41.930;25.558;2024-01-10T02:01:43;100887.53;;;-1.93;76.34
7109;BME280;29079;41.930;25.558;2024-01-10T02:04:31;100864.81;;;-1.91;82.13
7109;BME280;29079;41.930;25.558;2024-01-10T02:07:20;100878.84;;;-1.97;78.88
7109;BME280;29079;41.930;25.558;2024-01-10T02:10:08;100893.47;;;-1.85;81.13
7109;BME280;29079;41.930;25.558;2024-01-10T02:12:58;100884.00;;;-1.92;82.95
7109;BME280;29079;41.930;25.558;2024-01-10T02:15:46;100858.59;;;-1.84;90.90
7109;BME280;29079;41.930;25.558;2024-01-10T02:18:34;100877.00;;;-1.90;90.74
7109;BME280;29079;41.930;25.558;2024-01-10T02:21:22;100878.56;;;-1.78;91.16
7109;BME280;29079;41.930;25.558;2024-01-10T02:24:10;100880.94;;;-2.20;92.41
7109;BME280;29079;41.930;25.558;2024-01-10T02:27:00;100878.78;;;-1.94;94.24
7109;BME280;29079;41.930;25.558;2024-01-10T02:29:49;100872.44;;;-1.77;97.71
7109;BME280;29079;41.930;25.558;2024-01-10T02:32:38;100869.94;;;-1.86;98.83
7109;BME280;29079;41.930;25.558;2024-01-10T02:35:27;100815.44;;;-2.14;100.00
7109;BME280;29079;41.930;25.558;2024-01-10T02:38:15;100890.19;;;-1.98;97.44
7109;BME280;29079;41.930;25.558;2024-01-10T02:41:06;100890.41;;;-1.57;99.43
7109;BME280;29079;41.930;25.558;2024-01-10T02:43:56;100893.75;;;-2.03;94.49
7109;BME280;29079;41.930;25.558;2024-01-10T02:46:46;100895.28;;;-1.87;90.28
7109;BME280;29079;41.930;25.558;2024-01-10T02:49:34;100888.06;;;-1.72;89.93
7109;BME280;29079;41.930;25.558;2024-01-10T02:52:22;100894.94;;;-1.65;90.17
7109;BME280;29079;41.930;25.558;2024-01-10T02:55:10;100896.44;;;-1.52;86.87
7109;BME280;29079;41.930;25.558;2024-01-10T02:57:59;100858.66;;;-1.88;85.58
7109;BME280;29079;41.930;25.558;2024-01-10T03:00:48;100898.03;;;-1.43;88.00
7109;BME280;29079;41.930;25.558;2024-01-10T03:03:36;100869.91;;;-1.83;84.78
7109;BME280;29079;41.930;25.558;2024-01-10T03:06:25;100890.13;;;-1.93;73.93
7109;BME280;29079;41.930;25.558;2024-01-10T03:09:13;100875.69;;;-2.19;69.40
7109;BME280;29079;41.930;25.558;2024-01-10T03:12:04;100887.44;;;-1.88;74.69
7109;BME280;29079;41.930;25.558;2024-01-10T03:14:52;100888.69;;;-2.14;71.32
7109;BME280;29079;41.930;25.558;2024-01-10T03:17:41;100872.50;;;-1.82;80.47
7109;BME280;29079;41.930;25.558;2024-01-10T03:20:30;100886.69;;;-1.97;72.79
7109;BME280;29079;41.930;25.558;2024-01-10T03:23:18;100890.13;;;-1.93;75.40
7109;BME280;29079;41.930;25.558;2024-01-10T03:26:06;100876.72;;;-1.73;77.97
7109;BME280;29079;41.930;25.558;2024-01-10T03:28:55;100890.72;;;-1.74;82.72
7109;BME280;29079;41.930;25.558;2024-01-10T03:31:43;100886.38;;;-1.77;71.51
7109;BME280;29079;41.930;25.558;2024-01-10T03:34:33;100878.22;;;-2.14;69.21
7109;BME280;29079;41.930;25.558;2024-01-10T03:37:22;100885.28;;;-2.21;74.85
7109;BME280;29079;41.930;25.558;2024-01-10T03:40:10;100885.41;;;-1.71;76.73
7109;BME280;29079;41.930;25.558;2024-01-10T03:42:58;100888.53;;;-2.05;67.31
7109;BME280;29079;41.930;25.558;2024-01-10T03:45:47;100877.47;;;-1.65;76.94
7109;BME280;29079;41.930;25.558;2024-01-10T03:48:35;100888.81;;;-1.66;77.41
7109;BME280;29079;41.930;25.558;2024-01-10T03:51:24;100895.63;;;-2.10;67.11
7109;BME280;29079;41.930;25.558;2024-01-10T03:54:13;100884.06;;;-1.97;70.54
7109;BME280;29079;41.930;25.558;2024-01-10T03:57:01;100898.09;;;-2.01;67.33
7109;BME280;29079;41.930;25.558;2024-01-10T03:59:49;100891.28;;;-1.56;77.20
7109;BME280;29079;41.930;25.558;2024-01-10T04:02:37;100879.09;;;-2.14;68.77
7109;BME280;29079;41.930;25.558;2024-01-10T04:05:26;100908.16;;;-1.76;72.72
7109;BME280;29079;41.930;25.558;2024-01-10T04:08:15;100905.56;;;-1.76;72.14
7109;BME280;29079;41.930;25.558;2024-01-10T04:11:04;100904.56;;;-1.69;77.92
7109;BME280;29079;41.930;25.558;2024-01-10T04:13:52;100903.38;;;-2.04;67.33
7109;BME280;29079;41.930;25.558;2024-01-10T04:16:40;100920.28;;;-1.69;77.49
7109;BME280;29079;41.930;25.558;2024-01-10T04:19:28;100910.69;;;-1.68;75.91
7109;BME280;29079;41.930;25.558;2024-01-10T04:22:16;100924.78;;;-1.77;76.10
7109;BME280;29079;41.930;25.558;2024-01-10T04:25:07;100923.34;;;-1.42;81.16
7109;BME280;29079;41.930;25.558;2024-01-10T04:27:55;100921.09;;;-1.64;78.62
7109;BME280;29079;41.930;25.558;2024-01-10T04:30:43;100934.44;;;-1.82;74.11
7109;BME280;29079;41.930;25.558;2024-01-10T04:33:31;100933.47;;;-1.75;75.16
7109;BME280;29079;41.930;25.558;2024-01-10T04:36:20;100932.25;;;-2.12;68.14
7109;BME280;29079;41.930;25.558;2024-01-10T04:39:08;100944.09;;;-2.48;65.87
7109;BME280;29079;41.930;25.558;2024-01-10T04:41:57;100944.34;;;-1.45;82.18
7109;BME280;29079;41.930;25.558;2024-01-10T04:44:46;100950.94;;;-1.79;72.15
7109;BME280;29079;41.930;25.558;2024-01-10T04:47:33;100948.59;;;-1.96;73.62
7109;BME280;29079;41.930;25.558;2024-01-10T04:50:22;100926.81;;;-1.98;76.42
7109;BME280;29079;41.930;25.558;2024-01-10T04:53:10;100952.97;;;-1.95;80.93
7109;BME280;29079;41.930;25.558;2024-01-10T04:55:58;100943.59;;;-2.11;70.43
7109;BME280;29079;41.930;25.558;2024-01-10T04:58:47;100947.34;;;-1.68;80.67
7109;BME280;29079;41.930;25.558;2024-01-10T05:01:35;100955.66;;;-2.01;66.96
7109;BME280;29079;41.930;25.558;2024-01-10T05:04:24;100941.19;;;-2.26;68.06
7109;BME280;29079;41.930;25.558;2024-01-10T05:07:12;100965.13;;;-1.94;70.51
7109;BME280;29079;41.930;25.558;2024-01-10T05:10:00;100957.53;;;-2.12;72.80
7109;BME280;29079;41.930;25.558;2024-01-10T05:12:48;100961.41;;;-2.41;71.29
7109;BME280;29079;41.930;25.558;2024-01-10T05:15:38;100963.25;;;-1.84;81.66
7109;BME280;29079;41.930;25.558;2024-01-10T05:18:26;100962.41;;;-2.50;62.56
7109;BME280;29079;41.930;25.558;2024-01-10T05:21:14;100962.91;;;-2.96;59.50
7109;BME280;29079;41.930;25.558;2024-01-10T05:24:02;100967.53;;;-2.42;68.14
7109;BME280;29079;41.930;25.558;2024-01-10T05:26:51;100950.91;;;-2.38;68.66
7109;BME280;29079;41.930;25.558;2024-01-10T05:29:38;100975.91;;;-2.15;71.13
7109;BME280;29079;41.930;25.558;2024-01-10T05:32:28;100984.03;;;-2.38;69.46
7109;BME280;29079;41.930;25.558;2024-01-10T05:35:16;100980.63;;;-2.45;72.30
7109;BME280;29079;41.930;25.558;2024-01-10T05:38:04;100887.72;;;-2.72;69.79
7109;BME280;29079;41.930;25.558;2024-01-10T05:40:52;100983.09;;;-2.34;71.97
7109;BME280;29079;41.930;25.558;2024-01-10T05:43:41;100984.13;;;-2.46;70.81
7109;BME280;29079;41.930;25.558;2024-01-10T05:46:31;100994.00;;;-2.71;62.17
7109;BME280;29079;41.930;25.558;2024-01-10T05:49:20;100767.44;;;-4.23;64.81
7109;BME280;29079;41.930;25.558;2024-01-10T05:52:09;101001.81;;;-2.70;68.56
7109;BME280;29079;41.930;25.558;2024-01-10T05:54:58;100951.53;;;-2.90;66.25
7109;BME280;29079;41.930;25.558;2024-01-10T05:57:48;100996.72;;;-2.84;63.41
7109;BME280;29079;41.930;25.558;2024-01-10T06:00:36;100892.19;;;-2.82;76.99
7109;BME280;29079;41.930;25.558;2024-01-10T06:03:24;101006.78;;;-2.45;73.64
7109;BME280;29079;41.930;25.558;2024-01-10T06:06:14;101014.03;;;-2.73;67.39
7109;BME280;29079;41.930;25.558;2024-01-10T06:09:02;101028.00;;;-2.77;64.03
7109;BME280;29079;41.930;25.558;2024-01-10T06:11:51;101002.09;;;-3.01;64.40
7109;BME280;29079;41.930;25.558;2024-01-10T06:14:39;100964.66;;;-3.00;67.01
7109;BME280;29079;41.930;25.558;2024-01-10T06:17:28;101024.44;;;-2.66;63.11
7109;BME280;29079;41.930;25.558;2024-01-10T06:20:17;101037.31;;;-2.49;69.17
7109;BME280;29079;41.930;25.558;2024-01-10T06:23:07;100965.94;;;-2.55;70.07
7109;BME280;29079;41.930;25.558;2024-01-10T06:25:56;101033.75;;;-1.73;81.67
7109;BME280;29079;41.930;25.558;2024-01-10T06:28:44;101038.97;;;-1.71;76.27
7109;BME280;29079;41.930;25.558;2024-01-10T06:31:32;101034.34;;;-2.19;73.99
7109;BME280;29079;41.930;25.558;2024-01-10T06:34:20;101042.78;;;-2.73;64.94
7109;BME280;29079;41.930;25.558;2024-01-10T06:37:09;101045.78;;;-2.28;72.53
7109;BME280;29079;41.930;25.558;2024-01-10T06:39:58;101050.56;;;-2.64;64.71
7109;BME280;29079;41.930;25.558;2024-01-10T06:42:46;100938.00;;;-3.34;62.91
7109;BME280;29079;41.930;25.558;2024-01-10T06:45:34;101044.44;;;-2.63;63.31
7109;BME280;29079;41.930;25.558;2024-01-10T06:48:22;101045.53;;;-2.84;61.66
7109;BME280;29079;41.930;25.558;2024-01-10T06:51:11;101050.91;;;-2.16;71.04
7109;BME280;29079;41.930;25.558;2024-01-10T06:53:59;101063.06;;;-2.13;69.68
7109;BME280;29079;41.930;25.558;2024-01-10T06:56:51;101070.03;;;-2.12;73.51
7109;BME280;29079;41.930;25.558;2024-01-10T06:59:39;101013.03;;;-2.57;66.00
7109;BME280;29079;41.930;25.558;2024-01-10T07:02:27;101070.00;;;-2.07;69.14
7109;BME280;29079;41.930;25.558;2024-01-10T07:05:15;101062.53;;;-1.68;81.72
7109;BME280;29079;41.930;25.558;2024-01-10T07:08:04;101074.81;;;-2.50;59.86
7109;BME280;29079;41.930;25.558;2024-01-10T07:10:52;101080.09;;;-2.57;65.59
7109;BME280;29079;41.930;25.558;2024-01-10T07:13:43;101034.94;;;-2.72;63.61
7109;BME280;29079;41.930;25.558;2024-01-10T07:16:31;101076.59;;;-1.79;80.55
7109;BME280;29079;41.930;25.558;2024-01-10T07:19:22;101079.19;;;-2.53;64.71
7109;BME280;29079;41.930;25.558;2024-01-10T07:22:10;101075.63;;;-2.46;67.74
7109;BME280;29079;41.930;25.558;2024-01-10T07:24:59;101070.53;;;-2.60;74.23
7109;BME280;29079;41.930;25.558;2024-01-10T07:27:47;101093.59;;;-2.15;70.53
7109;BME280;29079;41.930;25.558;2024-01-10T07:30:36;101089.03;;;-1.96;73.79
7109;BME280;29079;41.930;25.558;2024-01-10T07:33:24;101095.91;;;-1.86;78.54
7109;BME280;29079;41.930;25.558;2024-01-10T07:36:13;101095.94;;;-1.90;72.00
7109;BME280;29079;41.930;25.558;2024-01-10T07:39:03;101098.38;;;-1.75;74.41
7109;BME280;29079;41.930;25.558;2024-01-10T07:41:51;101029.84;;;-2.84;60.93
7109;BME280;29079;41.930;25.558;2024-01-10T07:44:39;101101.66;;;-2.34;61.64
7109;BME280;29079;41.930;25.558;2024-01-10T07:47:31;101097.13;;;-2.19;65.11
7109;BME280;29079;41.930;25.558;2024-01-10T07:50:20;101094.94;;;-1.80;75.53
7109;BME280;29079;41.930;25.558;2024-01-10T07:53:13;101102.28;;;-2.10;62.07
7109;BME280;29079;41.930;25.558;2024-01-10T07:56:02;101021.75;;;-2.59;66.06
7109;BME280;29079;41.930;25.558;2024-01-10T07:58:50;101101.41;;;-2.12;58.18
7109;BME280;29079;41.930;25.558;2024-01-10T08:01:38;101082.41;;;-2.25;58.15
7109;BME280;29079;41.930;25.558;2024-01-10T08:04:28;101078.00;;;-2.23;57.44
7109;BME280;29079;41.930;25.558;2024-01-10T08:07:16;101108.72;;;-1.66;60.97
7109;BME280;29079;41.930;25.558;2024-01-10T08:10:04;101110.63;;;-1.80;59.34
7109;BME280;29079;41.930;25.558;2024-01-10T08:12:52;101112.66;;;-1.35;72.63
7109;BME280;29079;41.930;25.558;2024-01-10T08:15:40;101111.28;;;-1.63;58.01
7109;BME280;29079;41.930;25.558;2024-01-10T08:18:28;101092.94;;;-1.60;60.45
7109;BME280;29079;41.930;25.558;2024-01-10T08:21:18;101104.44;;;-1.73;59.55
7109;BME280;29079;41.930;25.558;2024-01-10T08:24:06;101095.88;;;-1.84;57.41
7109;BME280;29079;41.930;25.558;2024-01-10T08:26:54;101112.00;;;-1.51;62.45
7109;BME280;29079;41.930;25.558;2024-01-10T08:29:42;101109.31;;;-1.47;65.05
7109;BME280;29079;41.930;25.558;2024-01-10T08:32:31;101085.09;;;-1.60;75.65
7109;BME280;29079;41.930;25.558;2024-01-10T08:35:22;101115.56;;;-1.54;69.03
7109;BME280;29079;41.930;25.558;2024-01-10T08:38:15;100900.97;;;-2.19;71.91
7109;BME280;29079;41.930;25.558;2024-01-10T08:41:03;101092.75;;;-1.47;69.63
7109;BME280;29079;41.930;25.558;2024-01-10T08:43:51;101115.78;;;-1.72;59.46
7109;BME280;29079;41.930;25.558;2024-01-10T08:46:39;101128.38;;;-1.35;61.88
7109;BME280;29079;41.930;25.558;2024-01-10T08:49:28;101114.66;;;-1.53;63.24
7109;BME280;29079;41.930;25.558;2024-01-10T08:52:16;101056.41;;;-1.69;60.09
7109;BME280;29079;41.930;25.558;2024-01-10T08:55:07;101115.50;;;-1.49;71.78
7109;BME280;29079;41.930;25.558;2024-01-10T08:57:59;101107.22;;;-1.85;56.79
7109;BME280;29079;41.930;25.558;2024-01-10T09:00:48;101114.25;;;-1.25;71.21
7109;BME280;29079;41.930;25.558;2024-01-10T09:03:36;101105.16;;;-1.01;71.85
7109;BME280;29079;41.930;25.558;2024-01-10T09:06:25;101070.31;;;-1.06;77.44
7109;BME280;29079;41.930;25.558;2024-01-10T09:09:14;101099.16;;;-1.08;65.46
7109;BME280;29079;41.930;25.558;2024-01-10T09:12:06;101086.88;;;-0.53;82.51
7109;BME280;29079;41.930;25.558;2024-01-10T09:14:54;101102.88;;;-1.23;62.09
7109;BME280;29079;41.930;25.558;2024-01-10T09:17:43;101098.47;;;-1.81;59.52
7109;BME280;29079;41.930;25.558;2024-01-10T09:20:32;101091.00;;;-1.47;66.39
7109;BME280;29079;41.930;25.558;2024-01-10T09:23:20;101073.81;;;-1.65;59.68
7109;BME280;29079;41.930;25.558;2024-01-10T09:26:08;101081.53;;;-1.54;67.83
7109;BME280;29079;41.930;25.558;2024-01-10T09:28:58;101081.47;;;-0.95;75.64
7109;BME280;29079;41.930;25.558;2024-01-10T09:31:46;101070.25;;;-1.01;69.37
7109;BME280;29079;41.930;25.558;2024-01-10T09:34:34;101046.94;;;-1.18;65.18
7109;BME280;29079;41.930;25.558;2024-01-10T09:37:24;101078.59;;;-0.78;67.63
7109;BME280;29079;41.930;25.558;2024-01-10T09:40:14;101064.31;;;-1.13;64.80
7109;BME280;29079;41.930;25.558;2024-01-10T09:43:05;101074.28;;;-1.38;65.65
7109;BME280;29079;41.930;25.558;2024-01-10T09:45:57;101073.53;;;-0.89;72.47
7109;BME280;29079;41.930;25.558;2024-01-10T09:48:46;101063.72;;;-0.77;73.63
7109;BME280;29079;41.930;25.558;2024-01-10T09:51:38;101059.38;;;-1.33;64.49
7109;BME280;29079;41.930;25.558;2024-01-10T09:54:26;101029.25;;;-1.62;66.82
7109;BME280;29079;41.930;25.558;2024-01-10T09:57:17;101034.28;;;-1.48;65.99
7109;BME280;29079;41.930;25.558;2024-01-10T10:00:09;101039.13;;;-1.21;71.33
7109;BME280;29079;41.930;25.558;2024-01-10T10:03:01;101056.91;;;-1.42;65.08
7109;BME280;29079;41.930;25.558;2024-01-10T10:05:50;101050.31;;;-1.69;57.20
7109;BME280;29079;41.930;25.558;2024-01-10T10:08:38;101059.56;;;-1.45;61.01
7109;BME280;29079;41.930;25.558;2024-01-10T10:11:28;101057.84;;;-1.46;59.34
7109;BME280;29079;41.930;25.558;2024-01-10T10:14:18;101045.84;;;-1.63;62.43
7109;BME280;29079;41.930;25.558;2024-01-10T10:17:17;101040.44;;;-0.94;74.52
7109;BME280;29079;41.930;25.558;2024-01-10T10:20:08;101035.59;;;-1.19;62.68
7109;BME280;29079;41.930;25.558;2024-01-10T10:23:00;101030.88;;;-0.98;75.45
7109;BME280;29079;41.930;25.558;2024-01-10T10:25:49;101021.97;;;-0.41;71.04
7109;BME280;29079;41.930;25.558;2024-01-10T10:28:39;101026.72;;;-1.10;60.60
7109;BME280;29079;41.930;25.558;2024-01-10T10:31:28;101019.63;;;-1.05;63.23
7109;BME280;29079;41.930;25.558;2024-01-10T10:34:21;101019.09;;;-0.73;67.48
7109;BME280;29079;41.930;25.558;2024-01-10T10:37:11;101018.25;;;-0.76;65.26
7109;BME280;29079;41.930;25.558;2024-01-10T10:39:59;100993.00;;;-1.30;59.37
7109;BME280;29079;41.930;25.558;2024-01-10T10:42:48;101012.09;;;-1.25;59.17
7109;BME280;29079;41.930;25.558;2024-01-10T10:45:36;100982.28;;;-1.18;65.35
7109;BME280;29079;41.930;25.558;2024-01-10T10:48:26;100997.47;;;-0.40;75.22
7109;BME280;29079;41.930;25.558;2024-01-10T10:51:18;100996.06;;;-0.58;65.86
7109;BME280;29079;41.930;25.558;2024-01-10T10:54:09;100993.84;;;-0.78;62.49
7109;BME280;29079;41.930;25.558;2024-01-10T10:56:59;100987.16;;;-0.48;65.53
7109;BME280;29079;41.930;25.558;2024-01-10T10:59:50;100967.38;;;-0.22;81.48
7109;BME280;29079;41.930;25.558;2024-01-10T11:02:39;101001.84;;;0.03;77.00
7109;BME280;29079;41.930;25.558;2024-01-10T11:05:28;100996.81;;;-0.51;64.62
7109;BME280;29079;41.930;25.558;2024-01-10T11:08:19;100991.91;;;-0.70;57.63
7109;BME280;29079;41.930;25.558;2024-01-10T11:11:26;100934.44;;;-0.79;76.18
7109;BME280;29079;41.930;25.558;2024-01-10T11:14:25;100958.97;;;-0.83;60.46
7109;BME280;29079;41.930;25.558;2024-01-10T11:20:55;100961.53;;;-0.80;57.04
7109;BME280;29079;41.930;25.558;2024-01-10T11:23:48;100982.69;;;-0.90;57.31
7109;BME280;29079;41.930;25.558;2024-01-10T11:26:38;100976.16;;;-1.17;61.54
7109;BME280;29079;41.930;25.558;2024-01-10T11:29:28;100970.13;;;-0.72;64.45
7109;BME280;29079;41.930;25.558;2024-01-10T11:32:17;100958.63;;;-0.65;70.34
7109;BME280;29079;41.930;25.558;2024-01-10T11:35:10;100968.91;;;-0.56;67.88
7109;BME280;29079;41.930;25.558;2024-01-10T11:38:11;100972.34;;;-0.50;65.64
7109;BME280;29079;41.930;25.558;2024-01-10T11:40:59;100958.97;;;-0.83;56.87
7109;BME280;29079;41.930;25.558;2024-01-10T11:43:37;100954.44;;;-0.74;58.86
7109;BME280;29079;41.930;25.558;2024-01-10T11:46:12;100949.19;;;-0.74;63.00
7109;BME280;29079;41.930;25.558;2024-01-10T11:48:45;100951.91;;;0.06;78.30
7109;BME280;29079;41.930;25.558;2024-01-10T11:51:19;100948.00;;;-0.59;58.60
7109;BME280;29079;41.930;25.558;2024-01-10T11:53:52;100950.75;;;-0.65;58.55
7109;BME280;29079;41.930;25.558;2024-01-10T11:56:38;100894.47;;;-0.48;73.01
7109;BME280;29079;41.930;25.558;2024-01-10T11:59:16;100951.75;;;0.12;73.43
7109;BME280;29079;41.930;25.558;2024-01-10T12:01:50;100846.69;;;-1.05;60.05
7109;BME280;29079;41.930;25.558;2024-01-10T12:04:23;100948.56;;;-0.43;60.71
7109;BME280;29079;41.930;25.558;2024-01-10T12:07:13;100942.31;;;-0.37;62.33
7109;BME280;29079;41.930;25.558;2024-01-10T12:09:46;100934.03;;;-0.17;64.48
7109;BME280;29079;41.930;25.558;2024-01-10T12:12:19;100931.81;;;0.04;64.89
7109;BME280;29079;41.930;25.558;2024-01-10T12:14:54;100930.66;;;0.15;77.31
7109;BME280;29079;41.930;25.558;2024-01-10T12:17:28;100919.19;;;0.20;73.65
7109;BME280;29079;41.930;25.558;2024-01-10T12:20:02;100920.41;;;-0.34;61.08
7109;BME280;29079;41.930;25.558;2024-01-10T12:22:35;100923.06;;;-0.36;62.80
7109;BME280;29079;41.930;25.558;2024-01-10T12:25:09;100921.81;;;-0.18;65.78
7109;BME280;29079;41.930;25.558;2024-01-10T12:27:42;100919.97;;;0.25;72.21
7109;BME280;29079;41.930;25.558;2024-01-10T12:30:17;100904.94;;;-0.08;66.98
7109;BME280;29079;41.930;25.558;2024-01-10T12:32:50;100928.41;;;-0.39;65.02
7109;BME280;29079;41.930;25.558;2024-01-10T12:35:24;100920.22;;;-0.25;67.20
7109;BME280;29079;41.930;25.558;2024-01-10T12:37:57;100821.91;;;-0.90;66.25
7109;BME280;29079;41.930;25.558;2024-01-10T12:40:32;100920.94;;;-0.19;69.95
7109;BME280;29079;41.930;25.558;2024-01-10T12:43:05;100923.75;;;-0.28;69.89
7109;BME280;29079;41.930;25.558;2024-01-10T12:45:42;100924.22;;;-0.07;73.80
7109;BME280;29079;41.930;25.558;2024-01-10T12:48:17;100910.31;;;-0.12;74.47
7109;BME280;29079;41.930;25.558;2024-01-10T12:50:50;100904.44;;;-0.24;77.80
7109;BME280;29079;41.930;25.558;2024-01-10T12:53:24;100919.31;;;0.15;83.26
7109;BME280;29079;41.930;25.558;2024-01-10T12:55:57;100906.97;;;-0.21;71.90
7109;BME280;29079;41.930;25.558;2024-01-10T12:58:31;100872.19;;;-0.69;69.28
7109;BME280;29079;41.930;25.558;2024-01-10T13:01:08;100854.47;;;-0.58;73.21
7109;BME280;29079;41.930;25.558;2024-01-10T13:03:41;100919.81;;;-0.07;73.43
7109;BME280;29079;41.930;25.558;2024-01-10T13:06:14;100914.53;;;-0.05;78.46
7109;BME280;29079;41.930;25.558;2024-01-10T13:08:48;100852.28;;;-0.38;78.16
7109;BME280;29079;41.930;25.558;2024-01-10T13:11:22;100916.16;;;-0.40;69.09
7109;BME280;29079;41.930;25.558;2024-01-10T13:13:55;100921.16;;;0.10;79.80
7109;BME280;29079;41.930;25.558;2024-01-10T13:16:30;100920.31;;;0.09;77.97
7109;BME280;29079;41.930;25.558;2024-01-10T13:19:16;100924.25;;;-0.10;71.66
7109;BME280;29079;41.930;25.558;2024-01-10T13:21:50;100925.25;;;-0.14;71.21
7109;BME280;29079;41.930;25.558;2024-01-10T13:24:25;100920.06;;;0.20;78.31
7109;BME280;29079;41.930;25.558;2024-01-10T13:26:58;100920.81;;;-0.12;70.85
7109;BME280;29079;41.930;25.558;2024-01-10T13:29:31;100878.66;;;-0.45;71.18
7109;BME280;29079;41.930;25.558;2024-01-10T13:32:08;100913.34;;;0.08;75.32
7109;BME280;29079;41.930;25.558;2024-01-10T13:34:43;100912.84;;;-0.09;74.32
7109;BME280;29079;41.930;25.558;2024-01-10T13:37:16;100883.56;;;-0.28;72.64
7109;BME280;29079;41.930;25.558;2024-01-10T13:39:49;100911.69;;;0.04;73.47
7109;BME280;29079;41.930;25.558;2024-01-10T13:42:23;100912.94;;;-0.12;78.44
7109;BME280;29079;41.930;25.558;2024-01-10T13:44:56;100907.63;;;-0.09;74.30
7109;BME280;29079;41.930;25.558;2024-01-10T13:47:31;100885.94;;;-0.19;83.36
7109;BME280;29079;41.930;25.558;2024-01-10T13:50:06;100881.63;;;-0.20;73.30
7109;BME280;29079;41.930;25.558;2024-01-10T13:52:40;100880.63;;;-0.14;75.06
7109;BME280;29079;41.930;25.558;2024-01-10T13:55:13;100905.22;;;-0.19;73.18
7109;BME280;29079;41.930;25.558;2024-01-10T13:57:46;100912.03;;;-0.11;76.60
7109;BME280;29079;41.930;25.558;2024-01-10T14:00:20;100911.34;;;-0.20;77.28
7109;BME280;29079;41.930;25.558;2024-01-10T14:02:55;100905.94;;;-0.13;82.54
7109;BME280;29079;41.930;25.558;2024-01-10T14:05:31;100905.06;;;-0.12;79.93
7109;BME280;29079;41.930;25.558;2024-01-10T14:08:04;100908.78;;;-0.23;77.30
7109;BME280;29079;41.930;25.558;2024-01-10T14:10:37;100910.91;;;-0.40;78.69
7109;BME280;29079;41.930;25.558;2024-01-10T14:13:13;100814.81;;;-0.83;82.19
7109;BME280;29079;41.930;25.558;2024-01-10T14:15:47;100910.56;;;-0.23;85.07
7109;BME280;29079;41.930;25.558;2024-01-10T14:18:22;100825.84;;;-0.69;83.66
7109;BME280;29079;41.930;25.558;2024-01-10T14:20:56;100913.84;;;-0.15;82.91
7109;BME280;29079;41.930;25.558;2024-01-10T14:23:30;100908.25;;;0.02;85.36
7109;BME280;29079;41.930;25.558;2024-01-10T14:26:04;100914.78;;;-0.18;80.71
7109;BME280;29079;41.930;25.558;2024-01-10T14:28:38;100896.66;;;-0.28;87.42
7109;BME280;29079;41.930;25.558;2024-01-10T14:31:11;100917.22;;;-0.08;84.89